createdAt,value
2022-10-06T00:00:29.080Z,101545.03
2022-10-06T00:03:03.536Z,101547.34
2022-10-06T00:05:37.685Z,101544.88
2022-10-06T00:08:12.435Z,101546.44
2022-10-06T00:10:47.890Z,101545.94
2022-10-06T00:13:22.289Z,101544.31
2022-10-06T00:15:56.543Z,101545.87
2022-10-06T00:18:31.661Z,101545.63
2022-10-06T00:21:06.113Z,101543.53
2022-10-06T00:23:40.629Z,101539.59
2022-10-06T00:26:17.324Z,101535.81
2022-10-06T00:28:51.876Z,101538.28
2022-10-06T00:31:26.155Z,101535.81
2022-10-06T00:34:00.648Z,101536.38
2022-10-06T00:36:34.811Z,101539.22
2022-10-06T00:39:09.275Z,101542.94
2022-10-06T00:41:44.752Z,101531.50
2022-10-06T00:44:19.080Z,101532.13
2022-10-06T00:46:54.776Z,101532.81
2022-10-06T00:49:33.763Z,101531.19
2022-10-06T00:52:11.805Z,101531.03
2022-10-06T00:54:46.489Z,101524.41
2022-10-06T00:57:22.380Z,101524.59
2022-10-06T00:59:57.065Z,101530.94
2022-10-06T01:02:37.077Z,101520.38
2022-10-06T01:05:17.335Z,101521.37
2022-10-06T01:07:51.792Z,101523.97
2022-10-06T01:10:28.065Z,101521.56
2022-10-06T01:13:03.886Z,101516.78
2022-10-06T01:15:40.908Z,101525.25
2022-10-06T01:18:18.760Z,101519.13
2022-10-06T01:20:59.240Z,101501.91
2022-10-06T01:23:36.510Z,101515.72
2022-10-06T01:26:13.584Z,101517.63
2022-10-06T01:28:49.412Z,101524.87
2022-10-06T01:31:24.507Z,101524.59
2022-10-06T01:33:59.638Z,101519.59
2022-10-06T01:36:35.001Z,101513.97
2022-10-06T01:39:10.854Z,101506.12
2022-10-06T01:41:47.755Z,101512.41
2022-10-06T01:44:22.414Z,101507.69
2022-10-06T01:46:57.802Z,101504.37
2022-10-06T01:49:31.965Z,101512.28
2022-10-06T01:52:06.427Z,101514.81
2022-10-06T01:54:43.489Z,101507.34
2022-10-06T01:57:17.904Z,101509.66
2022-10-06T01:59:54.716Z,101509.59
2022-10-06T02:02:32.125Z,101516.56
2022-10-06T02:05:06.690Z,101517.63
2022-10-06T02:07:42.017Z,101514.44
2022-10-06T02:10:21.155Z,101513.59
2022-10-06T02:12:56.004Z,101521.53
2022-10-06T02:15:33.337Z,101517.87
2022-10-06T02:18:07.683Z,101525.34
2022-10-06T02:20:41.965Z,101533.72
2022-10-06T02:23:16.060Z,101529.72
2022-10-06T02:25:58.634Z,101527.31
2022-10-06T02:28:33.938Z,101520.38
2022-10-06T02:31:10.426Z,101530.38
2022-10-06T02:33:44.937Z,101533.03
2022-10-06T02:36:19.544Z,101535.69
2022-10-06T02:38:53.883Z,101535.41
2022-10-06T02:41:30.078Z,101532.09
2022-10-06T02:44:04.326Z,101529.72
2022-10-06T02:46:38.770Z,101531.13
2022-10-06T02:49:13.438Z,101536.75
2022-10-06T02:51:47.860Z,101545.47
2022-10-06T02:54:23.335Z,101547.84
2022-10-06T02:56:59.291Z,101534.19
2022-10-06T02:59:34.057Z,101543.25
2022-10-06T03:02:08.464Z,101550.66
2022-10-06T03:04:42.827Z,101550.72
2022-10-06T03:07:18.012Z,101548.09
2022-10-06T03:09:52.962Z,101542.53
2022-10-06T03:12:30.087Z,101543.78
2022-10-06T03:15:04.277Z,101561.00
2022-10-06T03:17:39.259Z,101557.34
2022-10-06T03:20:15.172Z,101550.56
2022-10-06T03:22:50.440Z,101563.38
2022-10-06T03:25:24.606Z,101568.13
2022-10-06T03:28:00.705Z,101572.59
2022-10-06T03:30:36.285Z,101574.62
2022-10-06T03:33:11.047Z,101563.66
2022-10-06T03:35:45.179Z,101566.59
2022-10-06T03:38:19.636Z,101579.41
2022-10-06T03:40:54.281Z,101580.56
2022-10-06T03:43:30.200Z,101576.00
2022-10-06T03:46:06.054Z,101575.97
2022-10-06T03:48:41.281Z,101584.91
2022-10-06T03:51:17.187Z,101588.19
2022-10-06T03:53:52.891Z,101583.91
2022-10-06T03:56:29.308Z,101568.78
2022-10-06T03:59:07.343Z,101562.28
2022-10-06T04:01:43.761Z,101569.94
2022-10-06T04:04:18.577Z,101569.44
2022-10-06T04:06:54.452Z,101573.78
2022-10-06T04:09:28.876Z,101576.78
2022-10-06T04:12:03.262Z,101574.47
2022-10-06T04:14:39.640Z,101578.38
2022-10-06T04:17:14.046Z,101580.25
2022-10-06T04:19:48.778Z,101583.59
2022-10-06T04:22:22.774Z,101592.97
2022-10-06T04:24:57.150Z,101585.22
2022-10-06T04:27:31.387Z,101585.47
2022-10-06T04:30:08.245Z,101594.19
2022-10-06T04:32:42.894Z,101594.34
2022-10-06T04:35:17.664Z,101597.56
2022-10-06T04:37:53.013Z,101594.25
2022-10-06T04:40:27.613Z,101590.81
2022-10-06T04:43:02.754Z,101587.84
2022-10-06T04:45:39.097Z,101598.16
2022-10-06T04:48:13.456Z,101585.87
2022-10-06T04:50:54.986Z,101582.97
2022-10-06T04:53:30.637Z,101582.25
2022-10-06T04:56:07.381Z,101578.03
2022-10-06T04:58:43.427Z,101580.88
2022-10-06T05:01:21.698Z,101590.91
2022-10-06T05:03:57.869Z,101581.81
2022-10-06T05:06:35.037Z,101588.44
2022-10-06T05:09:10.829Z,101589.03
2022-10-06T05:11:46.163Z,101591.94
2022-10-06T05:14:20.450Z,101583.91
2022-10-06T05:16:56.299Z,101584.84
2022-10-06T05:19:30.373Z,101600.00
2022-10-06T05:22:04.847Z,101598.69
2022-10-06T05:24:38.973Z,101595.41
2022-10-06T05:27:13.639Z,101594.41
2022-10-06T05:29:48.072Z,101596.34
2022-10-06T05:32:23.969Z,101600.28
2022-10-06T05:34:58.053Z,101607.94
2022-10-06T05:37:32.586Z,101595.50
2022-10-06T05:40:07.858Z,101599.00
2022-10-06T05:42:42.409Z,101602.87
2022-10-06T05:45:16.725Z,101607.50
2022-10-06T05:47:57.701Z,101609.91
2022-10-06T05:50:31.968Z,101615.69
2022-10-06T05:53:06.392Z,101615.09
2022-10-06T05:55:40.629Z,101622.88
2022-10-06T05:58:18.492Z,101614.75
2022-10-06T06:00:53.339Z,101602.03
2022-10-06T06:03:29.427Z,101613.91
2022-10-06T06:06:03.752Z,101614.44
2022-10-06T06:08:38.177Z,101614.50
2022-10-06T06:11:12.809Z,101619.34
2022-10-06T06:13:47.270Z,101616.84
2022-10-06T06:16:20.550Z,101618.38
2022-10-06T06:18:57.169Z,101624.47
2022-10-06T06:21:33.019Z,101623.09
2022-10-06T06:24:08.286Z,101626.19
2022-10-06T06:26:42.475Z,101633.72
2022-10-06T06:29:16.903Z,101632.00
2022-10-06T06:31:51.417Z,101641.31
2022-10-06T06:34:29.148Z,101654.97
2022-10-06T06:37:07.528Z,101654.25
2022-10-06T06:39:44.276Z,101660.25
2022-10-06T06:42:18.904Z,101659.47
2022-10-06T06:44:55.512Z,101667.75
2022-10-06T06:47:30.058Z,101681.13
2022-10-06T06:50:10.408Z,101674.63
2022-10-06T06:52:44.791Z,101675.88
2022-10-06T06:55:19.653Z,101675.22
2022-10-06T06:57:53.690Z,101675.44
2022-10-06T07:00:32.531Z,101682.84
2022-10-06T07:03:14.233Z,101695.59
2022-10-06T07:05:50.184Z,101695.47
2022-10-06T07:08:25.025Z,101690.09
2022-10-06T07:10:59.572Z,101698.22
2022-10-06T07:13:35.212Z,101706.09
2022-10-06T07:16:29.612Z,101695.56
2022-10-06T07:19:25.008Z,101693.66
2022-10-06T07:22:21.172Z,101697.94
2022-10-06T07:25:11.828Z,101700.19
2022-10-06T07:27:47.560Z,101700.34
2022-10-06T07:30:23.788Z,101705.72
2022-10-06T07:32:58.561Z,101702.09
2022-10-06T07:35:33.025Z,101701.22
2022-10-06T07:38:09.768Z,101711.03
2022-10-06T07:40:50.518Z,101714.78
2022-10-06T07:43:38.376Z,101712.66
2022-10-06T07:46:12.802Z,101711.47
2022-10-06T07:48:49.432Z,101722.31
2022-10-06T07:51:24.915Z,101708.50
2022-10-06T07:54:00.983Z,101715.09
2022-10-06T07:56:35.425Z,101700.19
2022-10-06T07:59:09.805Z,101716.41
2022-10-06T08:01:45.857Z,101716.72
2022-10-06T08:04:20.408Z,101716.38
2022-10-06T08:06:58.557Z,101718.37
2022-10-06T08:09:34.319Z,101718.59
2022-10-06T08:12:22.220Z,101729.25
2022-10-06T08:14:56.822Z,101724.63
2022-10-06T08:17:31.535Z,101722.97
2022-10-06T08:20:10.593Z,101723.72
2022-10-06T08:22:45.401Z,101724.94
2022-10-06T08:25:21.492Z,101727.12
2022-10-06T08:27:55.606Z,101727.75
2022-10-06T08:30:30.104Z,101726.38
2022-10-06T08:33:04.360Z,101724.97
2022-10-06T08:35:39.658Z,101718.06
2022-10-06T08:38:14.815Z,101719.50
2022-10-06T08:40:50.878Z,101720.66
2022-10-06T08:43:27.355Z,101720.09
2022-10-06T08:46:04.498Z,101725.25
2022-10-06T08:48:38.896Z,101724.84
2022-10-06T08:51:26.673Z,101718.66
2022-10-06T08:54:09.784Z,101716.06
2022-10-06T08:56:56.389Z,101722.84
2022-10-06T08:59:34.519Z,101732.91
2022-10-06T09:02:23.991Z,101723.00
2022-10-06T09:05:01.094Z,101725.78
2022-10-06T09:07:43.879Z,101721.03
2022-10-06T09:10:42.987Z,101725.19
2022-10-06T09:13:23.393Z,101728.44
2022-10-06T09:16:01.522Z,101730.44
2022-10-06T09:21:40.382Z,101739.09
2022-10-06T09:24:17.501Z,101740.62
2022-10-06T09:26:52.440Z,101731.66
2022-10-06T09:29:31.970Z,101727.94
2022-10-06T09:32:06.881Z,101727.50
2022-10-06T09:34:45.896Z,101730.09
2022-10-06T09:37:20.392Z,101727.78
2022-10-06T09:39:56.065Z,101730.56
2022-10-06T09:42:35.848Z,101738.13
2022-10-06T09:45:26.669Z,101731.28
2022-10-06T09:48:12.939Z,101730.56
2022-10-06T09:51:01.549Z,101729.25
2022-10-06T09:53:37.746Z,101730.25
2022-10-06T09:56:19.447Z,101727.03
2022-10-06T09:58:57.352Z,101724.97
2022-10-06T10:01:33.107Z,101730.12
2022-10-06T10:04:20.491Z,101730.44
2022-10-06T10:06:55.361Z,101734.25
2022-10-06T10:09:31.152Z,101738.25
2022-10-06T10:12:28.061Z,101737.50
2022-10-06T10:15:04.728Z,101743.88
2022-10-06T10:17:48.388Z,101733.09
2022-10-06T10:20:50.614Z,101728.56
2022-10-06T10:23:31.865Z,101730.84
2022-10-06T10:26:27.212Z,101732.56
2022-10-06T10:29:33.290Z,101740.41
2022-10-06T10:32:15.355Z,101738.69
2022-10-06T10:35:04.536Z,101733.50
2022-10-06T10:37:44.442Z,101742.75
2022-10-06T10:40:30.226Z,101731.03
2022-10-06T10:43:21.652Z,101730.66
2022-10-06T10:46:02.523Z,101727.00
2022-10-06T10:48:43.796Z,101723.91
2022-10-06T10:51:24.309Z,101720.34
2022-10-06T10:54:05.200Z,101715.72
2022-10-06T10:56:44.037Z,101710.44
2022-10-06T10:59:23.311Z,101725.06
2022-10-06T11:02:01.990Z,101722.75
2022-10-06T11:04:42.107Z,101714.09
2022-10-06T11:07:26.578Z,101719.03
2022-10-06T11:10:10.240Z,101729.03
2022-10-06T11:13:10.349Z,101728.13
2022-10-06T11:15:49.735Z,101707.28
2022-10-06T11:18:37.030Z,101704.72
2022-10-06T11:21:16.758Z,101697.03
2022-10-06T11:23:58.568Z,101700.00
2022-10-06T11:26:57.924Z,101701.13
2022-10-06T11:29:41.920Z,101701.25
2022-10-06T11:32:28.224Z,101704.09
2022-10-06T11:35:03.000Z,101700.78
2022-10-06T11:37:42.155Z,101693.25
2022-10-06T11:40:42.580Z,101698.75
2022-10-06T11:43:28.765Z,101690.75
2022-10-06T11:46:11.016Z,101687.81
2022-10-06T11:48:46.677Z,101684.25
2022-10-06T11:51:31.820Z,101682.78
2022-10-06T11:54:48.368Z,101683.50
2022-10-06T11:57:56.395Z,101683.94
2022-10-06T12:00:54.709Z,101675.03
2022-10-06T12:03:48.458Z,101667.06
2022-10-06T12:06:59.636Z,101683.22
2022-10-06T12:09:53.054Z,101670.13
2022-10-06T12:13:31.780Z,101686.88
2022-10-06T12:19:23.354Z,101671.19
2022-10-06T12:22:02.054Z,101674.28
2022-10-06T12:24:42.626Z,101676.12
2022-10-06T12:27:44.246Z,101664.31
2022-10-06T12:30:27.962Z,101669.91
2022-10-06T12:33:05.736Z,101670.59
2022-10-06T12:35:40.982Z,101664.81
2022-10-06T12:39:02.240Z,101652.97
2022-10-06T12:42:01.677Z,101648.09
2022-10-06T12:44:39.886Z,101655.22
2022-10-06T12:47:21.731Z,101650.44
2022-10-06T12:50:00.743Z,101651.44
2022-10-06T12:52:48.137Z,101649.97
2022-10-06T12:55:45.602Z,101650.97
2022-10-06T12:58:20.903Z,101641.56
2022-10-06T13:01:00.205Z,101650.97
2022-10-06T13:03:36.126Z,101644.84
2022-10-06T13:06:11.337Z,101641.28
2022-10-06T13:08:45.424Z,101637.47
2022-10-06T13:11:22.027Z,101644.34
2022-10-06T13:13:58.605Z,101636.22
2022-10-06T13:16:39.471Z,101639.28
2022-10-06T13:19:20.437Z,101635.94
2022-10-06T13:21:55.527Z,101636.97
2022-10-06T13:24:29.615Z,101631.34
2022-10-06T13:27:04.149Z,101636.19
2022-10-06T13:29:38.359Z,101639.28
2022-10-06T13:32:18.589Z,101631.88
2022-10-06T13:34:55.311Z,101638.50
2022-10-06T13:37:29.932Z,101629.56
2022-10-06T13:40:21.889Z,101631.59
2022-10-06T13:42:56.743Z,101627.50
2022-10-06T13:45:31.886Z,101628.94
2022-10-06T13:48:09.799Z,101627.63
2022-10-06T13:50:50.162Z,101633.69
2022-10-06T13:53:31.159Z,101635.06
2022-10-06T13:56:05.159Z,101632.66
2022-10-06T13:58:39.628Z,101639.50
2022-10-06T14:01:13.907Z,101629.31
2022-10-06T14:03:48.260Z,101636.72
2022-10-06T14:06:26.350Z,101643.84
2022-10-06T14:09:02.004Z,101637.47
2022-10-06T14:11:36.109Z,101641.25
2022-10-06T14:14:18.032Z,101637.47
2022-10-06T14:16:55.217Z,101646.00
2022-10-06T14:19:34.916Z,101640.56
2022-10-06T14:22:35.466Z,101640.06
2022-10-06T14:25:13.224Z,101642.31
2022-10-06T14:27:47.353Z,101641.47
2022-10-06T14:30:22.104Z,101643.66
2022-10-06T14:32:56.931Z,101647.66
2022-10-06T14:35:31.370Z,101647.31
2022-10-06T14:38:06.983Z,101649.53
2022-10-06T14:40:42.128Z,101639.00
2022-10-06T14:43:16.234Z,101644.03
2022-10-06T14:45:50.613Z,101654.41
2022-10-06T14:48:24.952Z,101641.62
2022-10-06T14:51:03.937Z,101649.81
2022-10-06T14:53:40.437Z,101654.91
2022-10-06T14:56:16.063Z,101648.53
2022-10-06T14:58:51.030Z,101645.75
2022-10-06T15:01:26.899Z,101655.78
2022-10-06T15:04:02.780Z,101648.94
2022-10-06T15:06:54.644Z,101655.91
2022-10-06T15:09:31.289Z,101653.00
2022-10-06T15:12:06.239Z,101652.03
2022-10-06T15:14:40.304Z,101655.03
2022-10-06T15:17:14.673Z,101667.34
2022-10-06T15:19:49.611Z,101663.00
2022-10-06T15:22:24.039Z,101662.19
2022-10-06T15:24:59.451Z,101661.34
2022-10-06T15:27:51.702Z,101655.47
2022-10-06T15:30:25.957Z,101666.03
2022-10-06T15:33:06.102Z,101662.22
2022-10-06T15:35:40.198Z,101660.09
2022-10-06T15:38:14.746Z,101667.56
2022-10-06T15:40:50.244Z,101670.75
2022-10-06T15:43:44.633Z,101670.19
2022-10-06T15:46:18.787Z,101668.34
2022-10-06T15:48:53.844Z,101672.50
2022-10-06T15:51:30.348Z,101680.25
2022-10-06T15:54:04.960Z,101689.97
2022-10-06T15:56:42.173Z,101691.47
2022-10-06T15:59:17.647Z,101693.47
2022-10-06T16:01:56.299Z,101685.72
2022-10-06T16:04:35.985Z,101694.06
2022-10-06T16:07:12.854Z,101693.78
2022-10-06T16:09:48.896Z,101697.19
2022-10-06T16:12:28.432Z,101701.03
2022-10-06T16:15:02.826Z,101701.72
2022-10-06T16:17:37.238Z,101701.59
2022-10-06T16:20:12.189Z,101699.78
2022-10-06T16:22:46.207Z,101703.22
2022-10-06T16:25:20.555Z,101699.22
2022-10-06T16:27:56.216Z,101709.75
2022-10-06T16:30:30.979Z,101700.34
2022-10-06T16:33:05.033Z,101720.00
2022-10-06T16:35:39.365Z,101715.69
2022-10-06T16:38:14.147Z,101720.41
2022-10-06T16:40:55.265Z,101719.53
2022-10-06T16:43:34.295Z,101728.66
2022-10-06T16:46:10.428Z,101721.91
2022-10-06T16:48:46.614Z,101731.78
2022-10-06T16:51:22.695Z,101726.09
2022-10-06T16:53:59.179Z,101732.81
2022-10-06T16:56:35.908Z,101730.78
2022-10-06T16:59:15.428Z,101734.06
2022-10-06T17:01:50.992Z,101746.19
2022-10-06T17:04:26.642Z,101749.75
2022-10-06T17:07:01.648Z,101745.03
2022-10-06T17:09:35.818Z,101746.19
2022-10-06T17:12:10.207Z,101745.47
2022-10-06T17:14:45.614Z,101739.47
2022-10-06T17:17:20.011Z,101748.72
2022-10-06T17:19:54.310Z,101753.03
2022-10-06T17:22:28.800Z,101765.41
2022-10-06T17:25:02.987Z,101761.12
2022-10-06T17:27:41.946Z,101760.66
2022-10-06T17:30:17.844Z,101750.91
2022-10-06T17:32:52.355Z,101759.28
2022-10-06T17:35:26.476Z,101763.75
2022-10-06T17:38:02.707Z,101761.25
2022-10-06T17:40:36.864Z,101759.72
2022-10-06T17:43:11.289Z,101751.56
2022-10-06T17:45:47.855Z,101753.88
2022-10-06T17:48:29.269Z,101750.62
2022-10-06T17:51:03.359Z,101750.38
2022-10-06T17:53:40.857Z,101747.34
2022-10-06T17:56:17.291Z,101742.63
2022-10-06T17:58:54.656Z,101742.97
2022-10-06T18:01:32.837Z,101738.37
2022-10-06T18:04:08.427Z,101740.19
2022-10-06T18:06:43.332Z,101738.72
2022-10-06T18:09:18.450Z,101744.03
2022-10-06T18:11:56.098Z,101741.81
2022-10-06T18:14:33.657Z,101739.97
2022-10-06T18:17:09.133Z,101740.28
2022-10-06T18:19:44.177Z,101739.06
2022-10-06T18:22:18.237Z,101745.25
2022-10-06T18:24:55.091Z,101746.78
2022-10-06T18:27:33.477Z,101750.03
2022-10-06T18:30:09.377Z,101748.31
2022-10-06T18:38:37.141Z,101760.69
2022-10-06T18:41:14.338Z,101765.00
2022-10-06T18:43:48.950Z,101767.28
2022-10-06T18:46:41.199Z,101768.06
2022-10-06T18:49:19.086Z,101772.69
2022-10-06T18:51:58.319Z,101766.09
2022-10-06T18:54:32.588Z,101757.84
2022-10-06T18:57:07.178Z,101772.22
2022-10-06T18:59:41.415Z,101775.16
2022-10-06T19:02:16.862Z,101775.47
2022-10-06T19:04:52.820Z,101771.31
2022-10-06T19:07:30.933Z,101780.25
2022-10-06T19:10:06.032Z,101775.78
2022-10-06T19:12:40.571Z,101775.25
2022-10-06T19:15:19.443Z,101779.84
2022-10-06T19:17:55.373Z,101773.81
2022-10-06T19:20:32.096Z,101783.94
2022-10-06T19:23:06.444Z,101779.78
2022-10-06T19:25:40.473Z,101777.50
2022-10-06T19:28:16.113Z,101774.09
2022-10-06T19:30:58.670Z,101780.53
2022-10-06T19:33:33.881Z,101782.56
2022-10-06T19:36:12.473Z,101785.81
2022-10-06T19:38:47.959Z,101783.69
2022-10-06T19:41:39.870Z,101788.72
2022-10-06T19:44:14.155Z,101793.63
2022-10-06T19:46:48.879Z,101793.37
2022-10-06T19:49:24.576Z,101797.22
2022-10-06T19:52:00.072Z,101794.00
2022-10-06T19:54:34.490Z,101793.37
2022-10-06T19:57:11.605Z,101801.84
2022-10-06T19:59:47.523Z,101794.91
2022-10-06T20:02:21.673Z,101797.38
2022-10-06T20:04:56.020Z,101801.94
2022-10-06T20:07:31.469Z,101797.84
2022-10-06T20:10:07.505Z,101798.31
2022-10-06T20:12:42.560Z,101797.03
2022-10-06T20:15:16.916Z,101803.56
2022-10-06T20:17:51.482Z,101797.41
2022-10-06T20:20:26.025Z,101804.16
2022-10-06T20:23:01.451Z,101806.44
2022-10-06T20:25:35.852Z,101800.06
2022-10-06T20:28:10.643Z,101801.56
2022-10-06T20:30:50.082Z,101805.41
2022-10-06T20:33:24.370Z,101812.59
2022-10-06T20:36:04.484Z,101796.69
2022-10-06T20:38:58.164Z,101810.91
2022-10-06T20:41:33.787Z,101805.88
2022-10-06T20:44:08.113Z,101812.53
2022-10-06T20:46:42.999Z,101815.31
2022-10-06T20:49:18.655Z,101816.53
2022-10-06T20:51:53.188Z,101804.88
2022-10-06T20:54:31.040Z,101797.66
2022-10-06T20:57:09.550Z,101806.59
2022-10-06T20:59:45.814Z,101818.91
2022-10-06T21:02:20.263Z,101813.13
2022-10-06T21:04:54.346Z,101818.47
2022-10-06T21:07:28.855Z,101829.44
2022-10-06T21:10:04.658Z,101817.72
2022-10-06T21:12:40.112Z,101819.44
2022-10-06T21:15:14.299Z,101817.53
2022-10-06T21:17:49.075Z,101820.75
2022-10-06T21:20:23.147Z,101826.50
2022-10-06T21:22:57.587Z,101823.41
2022-10-06T21:25:33.096Z,101818.44
2022-10-06T21:28:07.510Z,101826.09
2022-10-06T21:30:44.295Z,101822.56
2022-10-06T21:33:18.848Z,101825.75
2022-10-06T21:36:00.224Z,101823.31
2022-10-06T21:38:37.469Z,101824.31
2022-10-06T21:41:31.915Z,101820.53
2022-10-06T21:44:08.317Z,101821.44
2022-10-06T21:46:44.062Z,101816.13
2022-10-06T21:49:20.489Z,101814.69
2022-10-06T21:51:56.297Z,101807.19
2022-10-06T21:54:30.733Z,101807.50
2022-10-06T21:57:08.130Z,101817.34
2022-10-06T21:59:42.555Z,101818.25
2022-10-06T22:02:16.575Z,101813.03
2022-10-06T22:04:52.117Z,101821.22
2022-10-06T22:07:26.226Z,101819.47
2022-10-06T22:10:01.574Z,101815.72
2022-10-06T22:12:37.109Z,101821.25
2022-10-06T22:15:12.430Z,101824.13
2022-10-06T22:17:47.710Z,101817.91
2022-10-06T22:20:22.061Z,101825.44
2022-10-06T22:22:56.093Z,101823.44
2022-10-06T22:25:30.587Z,101821.94
2022-10-06T22:28:06.190Z,101819.28
2022-10-06T22:30:40.503Z,101821.81
2022-10-06T22:33:14.614Z,101830.22
2022-10-06T22:35:52.229Z,101822.47
2022-10-06T22:38:26.622Z,101820.25
2022-10-06T22:41:01.871Z,101815.94
2022-10-06T22:43:37.832Z,101813.41
2022-10-06T22:46:13.428Z,101806.87
2022-10-06T22:48:47.551Z,101805.88
2022-10-06T22:51:22.649Z,101808.97
2022-10-06T22:53:58.827Z,101809.44
2022-10-06T22:56:34.656Z,101800.81
2022-10-06T22:59:10.198Z,101790.97
2022-10-06T23:01:44.609Z,101785.53
2022-10-06T23:04:18.729Z,101784.19
2022-10-06T23:06:53.077Z,101784.97
2022-10-06T23:09:27.891Z,101779.56
2022-10-06T23:12:02.189Z,101788.50
2022-10-06T23:14:37.652Z,101785.19
2022-10-06T23:17:12.009Z,101775.91
2022-10-06T23:19:46.252Z,101780.78
2022-10-06T23:22:22.712Z,101782.87
2022-10-06T23:24:56.816Z,101780.66
2022-10-06T23:27:31.322Z,101780.88
2022-10-06T23:30:10.155Z,101784.75
2022-10-06T23:32:45.309Z,101783.84
2022-10-06T23:35:19.399Z,101784.19
2022-10-06T23:37:53.815Z,101793.03
2022-10-06T23:40:29.705Z,101792.56
2022-10-06T23:43:04.121Z,101794.22
2022-10-06T23:45:40.363Z,101788.97
2022-10-06T23:48:14.814Z,101787.41
2022-10-06T23:51:02.739Z,101792.06
2022-10-06T23:53:37.452Z,101800.03
2022-10-06T23:56:12.310Z,101795.53
2022-10-06T23:58:46.802Z,101802.78
